Time;durP1;ratioP1;P1;durP2;ratioP2;P2;SDS_P1;SDS_P2;PMS_P1;PMS_P2;Temp;Humidity;BMP_temperature;BMP_pressure;BME280_temperature;BME280_humidity;BME280_pressure;Samples;Min_cycle;Max_cycle;Signal;HPM_P1;HPM_P2
2022/10/14 00:00:51;;;;;;;0.00;0.00;;;;;;;18.81;38.74;95410.66;5113082;28;20436;-67
2022/10/14 00:03:17;;;;;;;0.20;0.20;;;;;;;18.84;38.96;95426.03;5113287;28;20446;-73
2022/10/14 00:05:45;;;;;;;0.73;0.73;;;;;;;18.94;38.61;95420.50;5098884;28;20444;-68
2022/10/14 00:08:14;;;;;;;0.50;0.50;;;;;;;18.60;39.25;95420.09;5101129;28;20429;-67
2022/10/14 00:10:40;;;;;;;0.63;0.63;;;;;;;18.54;38.95;95405.31;5108833;28;20524;-68
2022/10/14 00:13:07;;;;;;;0.10;0.10;;;;;;;18.70;38.88;95417.22;5112644;28;20441;-66
2022/10/14 00:15:39;;;;;;;0.53;0.53;;;;;;;18.34;39.25;95410.94;5098230;28;20437;-72
2022/10/14 00:18:09;;;;;;;0.43;0.43;;;;;;;18.61;38.55;95411.03;5112421;28;20444;-68
2022/10/14 00:20:36;;;;;;;1.80;1.07;;;;;;;18.57;38.93;95399.44;5112583;28;20478;-71
2022/10/14 00:23:03;;;;;;;0.30;0.30;;;;;;;18.64;39.06;95404.34;5106303;28;20436;-70
2022/10/14 00:25:30;;;;;;;0.57;0.57;;;;;;;18.39;39.13;95405.56;5104971;28;20508;-70
2022/10/14 00:27:56;;;;;;;0.00;0.00;;;;;;;18.57;39.17;95394.13;5107875;28;20447;-68
2022/10/14 00:30:23;;;;;;;1.17;1.13;;;;;;;18.36;39.52;95394.72;5090187;28;20445;-66
2022/10/14 00:32:50;;;;;;;2.93;0.67;;;;;;;18.25;39.74;95406.63;5106262;28;20465;-69
2022/10/14 00:35:17;;;;;;;0.10;0.10;;;;;;;18.11;40.03;95401.25;5100564;28;20953;-68
2022/10/14 00:37:44;;;;;;;0.40;0.40;;;;;;;18.17;39.87;95405.41;5110968;28;20858;-69
2022/10/14 00:40:11;;;;;;;0.30;0.30;;;;;;;18.43;39.63;95409.22;5090297;28;20470;-69
2022/10/14 00:42:38;;;;;;;0.10;0.10;;;;;;;18.52;39.89;95406.72;5096804;28;20992;-67
2022/10/14 00:45:20;;;;;;;0.10;0.10;;;;;;;18.73;39.88;95408.72;5099757;28;20480;-66
2022/10/14 00:47:50;;;;;;;0.53;0.53;;;;;;;18.75;39.88;95406.53;5111298;28;20861;-70
2022/10/14 00:50:19;;;;;;;0.10;0.10;;;;;;;18.65;39.82;95412.03;5109340;28;20448;-69
2022/10/14 00:52:46;;;;;;;0.30;0.30;;;;;;;18.79;39.76;95406.75;5099606;28;20850;-74
2022/10/14 00:55:16;;;;;;;0.10;0.10;;;;;;;18.71;40.23;95399.44;5097479;28;20444;-67
2022/10/14 00:57:44;;;;;;;0.20;0.20;;;;;;;18.57;40.22;95394.13;5104197;28;20436;-68
2022/10/14 01:00:17;;;;;;;0.10;0.10;;;;;;;18.12;41.08;95393.00;5090079;28;20537;-68
2022/10/14 01:02:46;;;;;;;1.03;0.80;;;;;;;18.17;41.21;95368.28;5092814;28;20480;-72
2022/10/14 01:05:16;;;;;;;0.20;0.20;;;;;;;18.34;41.21;95381.00;5111701;28;20534;-73
2022/10/14 01:08:07;;;;;;;2.43;1.33;;;;;;;18.23;41.19;95390.97;5106812;28;20524;-69
2022/10/14 01:11:10;;;;;;;0.10;0.10;;;;;;;18.59;41.19;95376.06;5105351;28;20448;-70
2022/10/14 01:13:47;;;;;;;3.90;1.30;;;;;;;18.54;41.54;95378.78;5087227;28;20447;-68
2022/10/14 01:16:53;;;;;;;0.17;0.17;;;;;;;18.66;41.15;95370.34;5097071;28;20973;-71
2022/10/14 01:19:44;;;;;;;0.63;0.63;;;;;;;18.78;41.27;95374.09;5097486;28;20428;-66
2022/10/14 01:22:26;;;;;;;0.37;0.37;;;;;;;18.63;41.52;95361.09;5113638;28;20587;-68
2022/10/14 01:25:17;;;;;;;0.50;0.50;;;;;;;18.71;41.50;95365.72;5104476;28;20448;-69
2022/10/14 01:28:02;;;;;;;0.00;0.00;;;;;;;18.82;41.25;95355.69;5108863;28;20440;-67
2022/10/14 01:30:33;;;;;;;0.30;0.30;;;;;;;18.42;41.78;95359.91;5116888;28;20443;-65
2022/10/14 01:33:10;;;;;;;0.30;0.30;;;;;;;18.65;41.65;95358.94;5098788;28;20436;-70
2022/10/14 01:36:07;;;;;;;0.10;0.10;;;;;;;18.15;42.29;95357.97;5111342;28;20534;-68
2022/10/14 01:38:40;;;;;;;0.10;0.10;;;;;;;18.27;41.75;95362.78;5106316;28;20993;-73
2022/10/14 01:41:21;;;;;;;0.00;0.00;;;;;;;18.31;42.21;95355.81;5097935;28;20494;-66
2022/10/14 01:43:50;;;;;;;0.70;0.40;;;;;;;18.16;42.45;95351.56;5089263;28;20457;-65
2022/10/14 01:46:20;;;;;;;0.60;0.43;;;;;;;17.83;42.96;95351.84;5109293;28;20460;-68
2022/10/14 01:48:52;;;;;;;0.10;0.10;;;;;;;18.38;42.19;95358.09;5096714;27;20445;-66
2022/10/14 01:51:25;;;;;;;0.10;0.10;;;;;;;18.55;41.94;95348.53;5098582;28;20865;-69
2022/10/14 01:53:57;;;;;;;0.13;0.13;;;;;;;18.26;42.53;95341.84;5104491;28;20461;-65
2022/10/14 01:56:27;;;;;;;0.10;0.10;;;;;;;17.77;43.87;95353.03;5090183;28;20425;-72
2022/10/14 01:58:58;;;;;;;0.10;0.10;;;;;;;18.14;42.98;95347.63;5089044;28;20457;-65
2022/10/14 02:01:25;;;;;;;0.03;0.03;;;;;;;18.37;42.56;95349.34;5088983;28;20449;-67
2022/10/14 02:03:53;;;;;;;0.23;0.23;;;;;;;18.38;42.71;95350.91;5090551;28;20973;-65
2022/10/14 02:06:42;;;;;;;0.10;0.10;;;;;;;18.31;42.54;95325.84;5098655;28;20464;-71
2022/10/14 02:09:24;;;;;;;0.10;0.10;;;;;;;18.46;42.92;95357.44;5096177;28;20449;-75
2022/10/14 02:12:21;;;;;;;0.20;0.20;;;;;;;17.74;43.96;95364.19;5110231;28;20487;-73
2022/10/14 02:15:13;;;;;;;0.00;0.00;;;;;;;17.65;44.61;95356.09;5098621;28;20835;-70
2022/10/14 02:17:50;;;;;;;0.00;0.00;;;;;;;17.75;43.74;95352.50;5105401;28;20430;-68
2022/10/14 02:20:23;;;;;;;0.50;0.50;;;;;;;18.13;43.43;95340.75;5101789;28;20799;-66
2022/10/14 02:23:19;;;;;;;0.10;0.10;;;;;;;17.65;43.83;95352.66;5110164;28;20455;-70
2022/10/14 02:25:48;;;;;;;0.20;0.20;;;;;;;17.85;43.92;95349.69;5107943;28;20950;-68
2022/10/14 02:28:20;;;;;;;0.17;0.17;;;;;;;17.88;43.77;95349.13;5101249;28;20433;-67
2022/10/14 02:30:52;;;;;;;0.10;0.10;;;;;;;18.15;43.39;95338.59;5104458;28;20449;-68
2022/10/14 02:33:25;;;;;;;0.30;0.30;;;;;;;18.23;43.33;95332.59;5095124;28;20451;-71
2022/10/14 02:35:54;;;;;;;0.40;0.40;;;;;;;18.28;43.30;95335.19;5095020;28;20433;-68
2022/10/14 02:38:24;;;;;;;0.10;0.10;;;;;;;18.05;43.90;95338.75;5088537;28;20553;-65
2022/10/14 02:40:52;;;;;;;0.77;0.77;;;;;;;18.11;43.55;95334.94;5097077;28;20445;-71
2022/10/14 02:43:19;;;;;;;0.50;0.50;;;;;;;18.18;43.07;95332.69;5100591;28;20451;-66
2022/10/14 02:45:46;;;;;;;4.47;0.87;;;;;;;17.92;43.59;95324.38;5105284;28;20473;-69
2022/10/14 02:48:13;;;;;;;0.57;0.53;;;;;;;18.00;43.31;95320.28;5088372;28;20878;-71
2022/10/14 02:50:41;;;;;;;0.10;0.10;;;;;;;18.07;43.82;95326.00;5088248;28;20443;-69
2022/10/14 02:53:13;;;;;;;0.00;0.00;;;;;;;18.16;43.34;95329.56;5088177;28;20581;-70
2022/10/14 02:55:42;;;;;;;0.30;0.30;;;;;;;18.20;43.19;95317.28;5102281;28;20502;-65
2022/10/14 02:58:09;;;;;;;0.00;0.00;;;;;;;17.92;44.13;95320.94;5100780;28;20439;-67
2022/10/14 03:00:36;;;;;;;0.10;0.10;;;;;;;18.03;43.48;95332.94;5093697;28;20757;-71
2022/10/14 03:03:05;;;;;;;0.10;0.10;;;;;;;17.96;44.09;95329.91;5108344;28;21112;-70
2022/10/14 03:05:32;;;;;;;0.73;0.57;;;;;;;17.74;44.32;95327.06;5091887;28;20441;-70
2022/10/14 03:08:00;;;;;;;0.40;0.33;;;;;;;17.82;43.70;95323.78;5096174;28;20459;-68
2022/10/14 03:10:28;;;;;;;0.40;0.40;;;;;;;17.99;43.91;95326.69;5093200;28;20509;-67
2022/10/14 03:12:56;;;;;;;0.00;0.00;;;;;;;17.97;43.62;95310.28;5094827;28;20982;-68
2022/10/14 03:15:33;;;;;;;0.07;0.07;;;;;;;17.91;43.37;95312.22;5098223;28;20451;-67
2022/10/14 03:18:00;;;;;;;0.10;0.10;;;;;;;17.54;44.04;95322.09;5096522;28;20450;-71
2022/10/14 03:20:36;;;;;;;0.10;0.10;;;;;;;17.66;44.18;95317.16;5108025;28;20435;-66
2022/10/14 03:23:05;;;;;;;0.13;0.13;;;;;;;17.60;44.18;95320.94;5103940;28;20452;-69
2022/10/14 03:25:35;;;;;;;0.03;0.03;;;;;;;17.23;44.97;95322.50;5087770;28;20944;-73
2022/10/14 03:28:13;;;;;;;0.00;0.00;;;;;;;17.55;44.20;95315.72;5107837;28;20432;-68
2022/10/14 03:31:00;;;;;;;0.57;0.53;;;;;;;17.48;44.57;95317.94;5107717;28;20436;-68
2022/10/14 03:34:06;;;;;;;0.00;0.00;;;;;;;17.75;43.81;95318.06;5091795;28;20458;-64
2022/10/14 03:36:35;;;;;;;0.10;0.10;;;;;;;17.43;44.18;95315.31;5088997;28;20443;-67
2022/10/14 03:39:04;;;;;;;0.10;0.10;;;;;;;17.42;44.33;95324.38;5088797;28;20433;-67
2022/10/14 03:41:36;;;;;;;0.30;0.30;;;;;;;17.04;44.72;95329.63;5093681;28;20486;-70
2022/10/14 03:44:05;;;;;;;0.10;0.10;;;;;;;17.25;44.77;95319.56;5094476;28;20500;-67
2022/10/14 03:46:34;;;;;;;0.00;0.00;;;;;;;17.10;45.14;95327.72;5104121;28;20433;-69
2022/10/14 03:49:02;;;;;;;0.10;0.10;;;;;;;17.36;44.99;95320.19;5102986;28;20519;-66
2022/10/14 03:51:28;;;;;;;0.07;0.07;;;;;;;17.61;44.29;95311.94;5095153;28;20551;-71
2022/10/14 03:54:06;;;;;;;1.60;1.23;;;;;;;17.35;45.23;95313.34;5092657;28;20440;-68
2022/10/14 03:56:34;;;;;;;0.10;0.10;;;;;;;17.55;44.58;95318.38;5107189;28;20436;-67
2022/10/14 03:59:01;;;;;;;0.00;0.00;;;;;;;17.57;44.45;95316.22;5088762;28;20791;-70
2022/10/14 04:01:28;;;;;;;0.00;0.00;;;;;;;17.42;45.02;95319.06;5095789;28;20444;-70
2022/10/14 04:04:18;;;;;;;0.40;0.40;;;;;;;17.18;45.85;95314.63;5092274;28;20444;-70
2022/10/14 04:06:45;;;;;;;3.00;0.53;;;;;;;17.09;46.30;95316.34;5110681;27;20967;-69
2022/10/14 04:09:15;;;;;;;2.63;1.17;;;;;;;16.89;45.73;95316.63;5096440;28;21534;-72
2022/10/14 04:11:42;;;;;;;0.10;0.10;;;;;;;17.05;46.19;95315.34;5091765;28;20559;-69
2022/10/14 04:14:23;;;;;;;0.20;0.20;;;;;;;17.09;45.99;95316.34;5097732;28;20880;-69
2022/10/14 04:16:50;;;;;;;0.00;0.00;;;;;;;17.04;47.29;95313.75;5104322;28;20437;-67
2022/10/14 04:19:18;;;;;;;0.00;0.00;;;;;;;17.14;45.81;95310.97;5095914;28;20555;-69
2022/10/14 04:21:46;;;;;;;0.10;0.10;;;;;;;16.95;46.76;95304.88;5106253;28;20493;-68
2022/10/14 04:24:14;;;;;;;0.27;0.27;;;;;;;17.14;45.97;95296.94;5107701;28;20436;-73
2022/10/14 04:26:51;;;;;;;0.20;0.20;;;;;;;17.48;45.22;95299.41;5107887;28;20451;-67
2022/10/14 04:29:44;;;;;;;0.10;0.10;;;;;;;17.79;44.85;95297.84;5098661;28;20445;-69
2022/10/14 04:32:21;;;;;;;0.00;0.00;;;;;;;17.33;45.23;95291.66;5109851;28;20475;-70
2022/10/14 04:34:48;;;;;;;1.37;1.17;;;;;;;17.50;44.93;95294.59;5111249;28;20444;-72
2022/10/14 04:37:19;;;;;;;0.10;0.10;;;;;;;17.46;44.79;95298.88;5098765;28;20884;-68
2022/10/14 04:39:53;;;;;;;0.27;0.27;;;;;;;16.93;45.02;95299.06;5116008;28;20824;-68
2022/10/14 04:42:20;;;;;;;0.10;0.10;;;;;;;17.03;44.59;95284.91;5094892;28;20468;-68
2022/10/14 04:44:51;;;;;;;0.30;0.30;;;;;;;17.22;45.98;95286.47;5099858;28;20559;-62
2022/10/14 04:47:25;;;;;;;0.67;0.67;;;;;;;17.12;46.42;95289.28;5087604;28;20445;-72
2022/10/14 04:49:57;;;;;;;1.27;1.17;;;;;;;17.50;45.03;95292.72;5078619;28;20539;-70
2022/10/14 04:52:26;;;;;;;0.67;0.60;;;;;;;17.52;45.57;95281.84;5090118;28;20498;-67
2022/10/14 04:54:59;;;;;;;2.57;2.40;;;;;;;17.64;45.58;95279.53;5080238;28;20811;-67
2022/10/14 04:57:39;;;;;;;0.60;0.60;;;;;;;17.40;46.57;95274.31;5089980;28;20544;-66
2022/10/14 05:00:06;;;;;;;0.73;0.73;;;;;;;17.47;45.97;95285.38;5105373;28;20440;-67
2022/10/14 05:02:43;;;;;;;0.23;0.23;;;;;;;17.83;44.96;95278.41;5097059;28;20436;-70
2022/10/14 05:05:13;;;;;;;6.73;5.23;;;;;;;18.13;44.08;95277.91;5097025;28;20971;-66
2022/10/14 05:07:42;;;;;;;1.80;1.27;;;;;;;17.95;43.01;95283.25;5089917;28;20437;-67
2022/10/14 05:10:21;;;;;;;1.40;0.87;;;;;;;17.98;43.46;95282.66;5091096;28;20449;-67
2022/10/14 05:12:48;;;;;;;0.67;0.53;;;;;;;17.70;44.13;95275.75;5096409;28;20543;-68
2022/10/14 05:15:17;;;;;;;0.20;0.20;;;;;;;17.57;45.08;95273.81;5111024;28;20440;-69
2022/10/14 05:17:54;;;;;;;0.00;0.00;;;;;;;17.72;44.69;95273.56;5089405;28;21142;-71
2022/10/14 05:20:27;;;;;;;0.00;0.00;;;;;;;17.30;43.96;95273.69;5084924;28;20437;-70
2022/10/14 05:22:56;;;;;;;2.10;1.00;;;;;;;17.81;43.55;95271.84;5095733;27;20519;-69
2022/10/14 05:25:23;;;;;;;0.50;0.50;;;;;;;18.07;42.97;95278.25;5101450;28;20456;-66
2022/10/14 05:27:52;;;;;;;0.00;0.00;;;;;;;18.19;42.55;95281.25;5091220;28;20541;-72
2022/10/14 05:30:19;;;;;;;0.00;0.00;;;;;;;18.24;42.34;95278.50;5089586;28;20457;-70
2022/10/14 05:32:51;;;;;;;0.03;0.03;;;;;;;18.20;42.49;95269.53;5100210;28;20489;-75
2022/10/14 05:35:20;;;;;;;0.03;0.03;;;;;;;18.20;42.79;95256.28;5108271;28;20452;-74
2022/10/14 05:38:07;;;;;;;0.00;0.00;;;;;;;18.30;42.26;95287.94;5107167;28;20432;-71
2022/10/14 05:40:38;;;;;;;0.00;0.00;;;;;;;18.02;42.92;95265.09;5093588;28;20448;-74
2022/10/14 05:43:05;;;;;;;0.77;0.70;;;;;;;18.30;42.43;95272.03;5089857;28;20446;-71
2022/10/14 05:45:35;;;;;;;0.00;0.00;;;;;;;18.46;42.66;95286.59;5094114;28;20934;-68
2022/10/14 05:48:01;;;;;;;0.10;0.10;;;;;;;18.40;42.20;95281.63;5108836;28;20838;-73
2022/10/14 05:50:29;;;;;;;0.17;0.17;;;;;;;18.10;42.98;95296.25;5089273;28;20525;-75
2022/10/14 05:53:00;;;;;;;0.20;0.20;;;;;;;18.23;42.89;95293.63;5100037;28;20595;-73
2022/10/14 05:55:37;;;;;;;0.10;0.10;;;;;;;18.31;42.33;95297.47;5105381;28;20492;-70
2022/10/14 05:58:04;;;;;;;0.57;0.40;;;;;;;18.39;42.39;95304.75;5100426;28;20444;-71
2022/10/14 06:00:36;;;;;;;0.00;0.00;;;;;;;18.48;42.51;95304.88;5096326;28;20455;-71
2022/10/14 06:03:10;;;;;;;0.10;0.10;;;;;;;17.99;43.20;95308.88;5109727;28;20435;-72
2022/10/14 06:05:39;;;;;;;0.50;0.50;;;;;;;18.06;43.56;95314.59;5110829;28;20440;-72
2022/10/14 06:08:07;;;;;;;0.70;0.27;;;;;;;18.24;43.44;95312.97;5101290;28;20441;-73
2022/10/14 06:10:37;;;;;;;0.20;0.20;;;;;;;18.14;43.81;95305.19;5090268;28;20490;-73
2022/10/14 06:13:04;;;;;;;0.07;0.07;;;;;;;18.04;43.75;95305.38;5099270;28;21149;-75
2022/10/14 06:15:35;;;;;;;0.43;0.40;;;;;;;18.31;43.13;95305.41;5095066;28;20437;-73
2022/10/14 06:18:02;;;;;;;0.17;0.17;;;;;;;18.29;43.69;95306.78;5097708;28;20447;-74
2022/10/14 06:20:30;;;;;;;3.03;0.70;;;;;;;18.32;43.14;95316.81;5110244;28;20540;-75
2022/10/14 06:23:01;;;;;;;0.20;0.20;;;;;;;18.47;43.31;95314.69;5112395;27;21005;-73
2022/10/14 06:25:29;;;;;;;0.00;0.00;;;;;;;17.87;43.58;95311.22;5112113;28;20448;-71
2022/10/14 06:28:02;;;;;;;0.20;0.20;;;;;;;18.06;43.43;95303.22;5096475;28;20519;-73
2022/10/14 06:30:30;;;;;;;0.00;0.00;;;;;;;18.32;43.62;95322.91;5111180;28;20564;-76
2022/10/14 06:32:57;;;;;;;0.43;0.23;;;;;;;18.28;42.78;95313.19;5093696;28;20552;-74
2022/10/14 06:35:23;;;;;;;0.00;0.00;;;;;;;18.51;42.58;95305.06;5100710;28;20464;-73
2022/10/14 06:37:50;;;;;;;0.30;0.20;;;;;;;18.38;42.73;95321.72;5096830;28;20480;-72
2022/10/14 06:40:17;;;;;;;0.00;0.00;;;;;;;18.40;42.74;95330.19;5111001;28;20501;-72
2022/10/14 06:42:44;;;;;;;0.23;0.23;;;;;;;18.24;43.09;95320.94;5097242;28;20465;-71
2022/10/14 06:45:11;;;;;;;0.83;0.83;;;;;;;17.77;42.74;95324.63;5111243;28;20479;-70
2022/10/14 06:47:38;;;;;;;0.00;0.00;;;;;;;18.09;42.94;95321.19;5107089;28;20516;-72
2022/10/14 06:50:06;;;;;;;0.40;0.40;;;;;;;18.46;42.42;95318.44;5100869;28;20440;-73
2022/10/14 06:52:32;;;;;;;0.03;0.03;;;;;;;18.55;42.38;95327.28;5097671;28;20494;-72
2022/10/14 06:54:59;;;;;;;1.03;0.53;;;;;;;18.27;42.97;95308.94;5111280;28;20505;-72
2022/10/14 06:57:26;;;;;;;0.37;0.37;;;;;;;17.90;43.47;95315.16;5109749;28;20502;-73
2022/10/14 06:59:53;;;;;;;0.63;0.37;;;;;;;18.19;42.71;95318.38;5111442;28;20479;-70
2022/10/14 07:02:20;;;;;;;0.10;0.10;;;;;;;18.18;42.91;95327.41;5111156;28;20444;-74
2022/10/14 07:04:47;;;;;;;0.10;0.10;;;;;;;18.42;42.83;95321.97;5100933;28;20437;-76
2022/10/14 07:07:14;;;;;;;0.27;0.27;;;;;;;18.29;42.66;95318.19;5093011;28;20437;-75
2022/10/14 07:09:41;;;;;;;0.20;0.20;;;;;;;18.54;41.86;95309.78;5101828;28;20442;-70
2022/10/14 07:12:08;;;;;;;0.57;0.37;;;;;;;18.87;41.73;95316.56;5104313;28;20447;-70
2022/10/14 07:14:34;;;;;;;0.30;0.20;;;;;;;18.15;42.10;95322.69;5110188;28;20484;-72
2022/10/14 07:17:01;;;;;;;0.47;0.47;;;;;;;18.59;42.16;95312.34;5109953;28;20459;-72
2022/10/14 07:19:28;;;;;;;0.03;0.03;;;;;;;18.60;41.94;95316.56;5104421;28;20440;-70
2022/10/14 07:21:55;;;;;;;0.10;0.10;;;;;;;18.78;41.51;95309.56;5100412;28;20440;-70
2022/10/14 07:24:22;;;;;;;0.10;0.10;;;;;;;18.64;41.89;95314.91;5109512;28;20440;-73
2022/10/14 07:26:48;;;;;;;0.10;0.10;;;;;;;18.58;41.43;95310.75;5100612;28;20964;-71
2022/10/14 07:29:16;;;;;;;0.10;0.10;;;;;;;18.66;41.64;95318.06;5090770;28;20453;-70
2022/10/14 07:31:43;;;;;;;0.20;0.20;;;;;;;18.79;41.72;95316.47;5102030;28;20445;-71
2022/10/14 07:34:09;;;;;;;1.03;0.40;;;;;;;18.75;41.87;95308.31;5103401;28;20513;-71
2022/10/14 07:36:36;;;;;;;0.20;0.20;;;;;;;18.95;41.28;95309.75;5095541;28;20859;-68
2022/10/14 07:39:04;;;;;;;0.87;0.87;;;;;;;18.93;41.54;95318.03;5103391;28;20532;-69
2022/10/14 07:41:32;;;;;;;0.10;0.10;;;;;;;18.93;41.44;95296.00;5100041;28;20469;-71
2022/10/14 07:44:04;;;;;;;0.10;0.10;;;;;;;18.56;41.70;95296.22;5105076;28;21288;-71
2022/10/14 07:46:34;;;;;;;0.10;0.10;;;;;;;18.36;41.91;95309.81;5099287;28;21109;-72
2022/10/14 07:49:04;;;;;;;1.07;0.40;;;;;;;18.49;41.60;95307.22;5104825;28;20527;-70
2022/10/14 07:51:32;;;;;;;0.23;0.23;;;;;;;18.03;41.90;95309.09;5096584;28;20979;-71
2022/10/14 07:54:01;;;;;;;0.27;0.27;;;;;;;17.93;41.81;95310.06;5096315;28;20496;-69
2022/10/14 07:56:29;;;;;;;0.73;0.73;;;;;;;18.02;41.19;95307.53;5100651;28;20437;-70
2022/10/14 07:58:57;;;;;;;0.20;0.20;;;;;;;18.15;41.63;95306.78;5103219;28;20528;-68
2022/10/14 08:01:24;;;;;;;0.20;0.20;;;;;;;18.85;39.95;95300.13;5099070;28;20448;-72
2022/10/14 08:03:51;;;;;;;0.00;0.00;;;;;;;18.71;39.72;95309.19;5095411;28;20451;-68
2022/10/14 08:06:18;;;;;;;2.17;0.37;;;;;;;19.00;40.20;95313.09;5104796;28;20441;-71
2022/10/14 08:08:45;;;;;;;0.13;0.13;;;;;;;19.38;39.28;95302.25;5093340;28;20806;-74
2022/10/14 08:11:21;;;;;;;0.67;0.47;;;;;;;18.76;39.38;95301.13;5113603;28;20839;-71
2022/10/14 08:13:48;;;;;;;0.00;0.00;;;;;;;17.99;40.55;95308.13;5099151;28;20480;-70
2022/10/14 08:16:27;;;;;;;0.13;0.13;;;;;;;18.93;40.41;95302.09;5093448;28;20489;-71
2022/10/14 08:18:56;;;;;;;0.10;0.10;;;;;;;18.92;39.50;95300.50;5093101;28;20797;-72
2022/10/14 08:21:24;;;;;;;1.40;1.00;;;;;;;18.42;39.90;95285.59;5092835;28;20471;-73
2022/10/14 08:23:51;;;;;;;0.40;0.40;;;;;;;18.83;39.80;95312.91;5106135;28;20468;-71
2022/10/14 08:26:25;;;;;;;0.10;0.10;;;;;;;19.40;38.97;95310.66;5113072;28;20953;-71
2022/10/14 08:28:52;;;;;;;0.20;0.20;;;;;;;18.76;38.79;95306.44;5113324;28;21039;-72
2022/10/14 08:31:20;;;;;;;0.20;0.20;;;;;;;19.41;38.67;95312.25;5112888;28;20436;-72
2022/10/14 08:33:47;;;;;;;0.10;0.10;;;;;;;19.39;38.40;95304.59;5112707;28;20471;-73
2022/10/14 08:36:14;;;;;;;0.30;0.30;;;;;;;19.39;37.98;95307.25;5110100;28;20443;-70
2022/10/14 08:38:41;;;;;;;0.03;0.03;;;;;;;19.21;37.55;95314.22;5092821;28;20467;-70
2022/10/14 08:41:11;;;;;;;0.40;0.40;;;;;;;19.46;37.77;95304.97;5101445;28;20464;-72
2022/10/14 08:44:15;;;;;;;0.10;0.10;;;;;;;19.85;37.73;95306.97;5105495;28;20840;-72
2022/10/14 08:46:50;;;;;;;0.10;0.10;;;;;;;19.67;37.69;95313.25;5112851;28;20435;-72
2022/10/14 08:49:24;;;;;;;0.13;0.13;;;;;;;19.98;37.06;95306.13;5097954;28;20816;-70
2022/10/14 08:51:58;;;;;;;0.43;0.43;;;;;;;19.48;37.12;95315.28;5098165;28;20445;-72
2022/10/14 08:54:39;;;;;;;0.10;0.10;;;;;;;19.33;37.55;95316.41;5104186;28;20480;-73
2022/10/14 08:57:19;;;;;;;0.23;0.23;;;;;;;19.47;36.81;95308.41;5091770;28;20456;-73
2022/10/14 08:59:47;;;;;;;0.10;0.10;;;;;;;19.30;36.24;95310.88;5102918;28;20452;-72
2022/10/14 09:02:23;;;;;;;0.30;0.27;;;;;;;19.81;36.24;95313.97;5098564;28;20889;-70
2022/10/14 09:04:50;;;;;;;0.50;0.50;;;;;;;19.12;36.24;95305.41;5101730;28;20441;-75
2022/10/14 09:07:19;;;;;;;0.10;0.10;;;;;;;19.57;36.24;95308.16;5106056;28;20476;-72
2022/10/14 09:09:55;;;;;;;0.00;0.00;;;;;;;19.98;36.31;95300.78;5100949;28;20436;-72
2022/10/14 09:12:28;;;;;;;0.10;0.10;;;;;;;19.71;36.52;95304.34;5112201;28;20443;-71
2022/10/14 09:15:06;;;;;;;0.33;0.30;;;;;;;19.68;36.61;95306.84;5102499;28;20441;-72
2022/10/14 09:17:39;;;;;;;0.47;0.47;;;;;;;19.37;37.40;95303.31;5105726;28;20443;-71
2022/10/14 09:20:15;;;;;;;0.30;0.30;;;;;;;19.53;37.07;95299.22;5091463;28;21037;-73
2022/10/14 09:22:42;;;;;;;0.07;0.07;;;;;;;19.41;36.49;95306.94;5105477;28;20546;-74
2022/10/14 09:25:14;;;;;;;0.23;0.23;;;;;;;19.75;37.10;95304.53;5101242;28;20432;-71
2022/10/14 09:27:41;;;;;;;0.47;0.40;;;;;;;19.48;37.47;95302.78;5111383;28;20548;-71
2022/10/14 09:30:14;;;;;;;0.10;0.10;;;;;;;20.20;36.90;95292.78;5111904;27;21043;-72
2022/10/14 09:32:45;;;;;;;0.40;0.40;;;;;;;19.90;36.95;95293.53;5096894;28;20437;-72
2022/10/14 09:35:24;;;;;;;0.10;0.10;;;;;;;19.91;36.46;95300.41;5111810;28;20860;-67
2022/10/14 09:37:52;;;;;;;0.20;0.20;;;;;;;20.06;36.76;95292.06;5109489;28;20436;-72
2022/10/14 09:40:34;;;;;;;0.20;0.20;;;;;;;19.94;36.98;95284.63;5099727;28;20440;-74
2022/10/14 09:43:09;;;;;;;0.10;0.10;;;;;;;19.55;38.19;95302.34;5091460;28;20515;-69
2022/10/14 09:45:45;;;;;;;0.30;0.13;;;;;;;20.16;37.66;95292.59;5106909;28;20509;-72
2022/10/14 09:48:32;;;;;;;0.77;0.43;;;;;;;20.55;37.29;95289.19;5111374;28;20448;-71
2022/10/14 09:51:01;;;;;;;0.23;0.23;;;;;;;20.30;36.79;95289.88;5103019;28;21100;-70
2022/10/14 09:53:37;;;;;;;0.53;0.53;;;;;;;20.86;35.95;95289.91;5091526;28;20501;-71
2022/10/14 09:56:06;;;;;;;0.77;0.73;;;;;;;20.86;36.70;95283.78;5111649;28;20562;-72
2022/10/14 09:58:52;;;;;;;6.53;5.90;;;;;;;21.01;36.98;95283.41;5110096;27;20483;-72
2022/10/14 10:01:22;;;;;;;0.87;0.87;;;;;;;21.17;35.91;95286.41;5102322;28;20425;-72
2022/10/14 10:03:51;;;;;;;0.20;0.20;;;;;;;21.44;36.15;95280.78;5109347;28;20440;-71
2022/10/14 10:06:22;;;;;;;0.10;0.10;;;;;;;21.73;35.27;95275.59;5111286;28;20437;-72
2022/10/14 10:08:52;;;;;;;0.17;0.17;;;;;;;21.18;34.58;95280.75;5108997;28;20443;-74
2022/10/14 10:11:32;;;;;;;0.97;0.40;;;;;;;21.87;34.91;95286.88;5089182;28;20448;-72
2022/10/14 10:14:19;;;;;;;0.10;0.10;;;;;;;21.49;34.99;95267.28;5104746;28;20479;-71
2022/10/14 10:16:47;;;;;;;0.00;0.00;;;;;;;21.65;34.44;95273.69;5101525;28;20436;-72
2022/10/14 10:19:27;;;;;;;0.43;0.43;;;;;;;21.02;34.86;95280.41;5108015;28;20443;-71
2022/10/14 10:22:28;;;;;;;0.30;0.30;;;;;;;21.60;34.81;95276.53;5090322;28;20499;-71
2022/10/14 10:25:00;;;;;;;0.17;0.17;;;;;;;21.55;34.31;95256.13;5090400;28;20429;-71
2022/10/14 10:27:35;;;;;;;1.43;0.73;;;;;;;21.50;33.64;95266.16;5089805;28;20476;-71
2022/10/14 10:30:23;;;;;;;0.17;0.17;;;;;;;21.86;32.34;95272.00;5097976;28;20440;-72
2022/10/14 10:33:06;;;;;;;0.27;0.27;;;;;;;21.80;32.84;95260.69;5108331;28;20440;-73
2022/10/14 10:36:05;;;;;;;0.17;0.17;;;;;;;21.97;32.66;95255.31;5106152;28;20451;-70
2022/10/14 10:39:06;;;;;;;1.53;1.43;;;;;;;21.83;32.21;95248.59;5113115;28;20487;-72
2022/10/14 10:41:39;;;;;;;0.20;0.20;;;;;;;22.41;31.77;95243.38;5091437;27;20479;-71
2022/10/14 10:44:06;;;;;;;2.47;0.57;;;;;;;21.13;32.11;95252.38;5092600;28;21017;-68
2022/10/14 10:46:54;;;;;;;0.10;0.10;;;;;;;21.31;32.50;95252.38;5101052;28;20433;-69
2022/10/14 10:49:41;;;;;;;0.33;0.33;;;;;;;21.64;33.43;95240.13;5108364;28;20473;-71
2022/10/14 10:52:39;;;;;;;0.20;0.20;;;;;;;21.47;32.81;95234.81;5095767;28;20444;-69
2022/10/14 10:55:17;;;;;;;0.40;0.40;;;;;;;21.68;32.39;95236.50;5095980;28;20829;-74
2022/10/14 10:57:55;;;;;;;0.20;0.20;;;;;;;22.12;30.83;95235.31;5110368;28;20444;-70
2022/10/14 11:00:23;;;;;;;0.13;0.13;;;;;;;22.54;29.97;95229.03;5109969;28;20946;-69
2022/10/14 11:03:26;;;;;;;0.07;0.07;;;;;;;22.31;28.93;95232.28;5110386;28;20489;-70
2022/10/14 11:12:27;;;;;;;0.10;0.10;;;;;;;22.87;28.61;95216.63;5104284;28;20436;-70
2022/10/14 11:14:59;;;;;;;0.10;0.10;;;;;;;22.93;28.85;95204.63;5109736;28;20886;-72
2022/10/14 11:17:45;;;;;;;0.10;0.10;;;;;;;22.40;28.23;95215.13;5109220;28;20989;-74
2022/10/14 11:20:21;;;;;;;0.10;0.10;;;;;;;22.85;28.19;95204.69;5109888;28;20477;-71
2022/10/14 11:23:17;;;;;;;0.20;0.20;;;;;;;22.48;27.27;95200.94;5095145;28;20994;-70
2022/10/14 11:25:50;;;;;;;0.10;0.10;;;;;;;22.86;27.35;95192.91;5095612;28;20441;-69
2022/10/14 11:28:29;;;;;;;0.40;0.40;;;;;;;22.61;26.10;95205.28;5109805;28;20227;-73
2022/10/14 11:31:07;;;;;;;0.37;0.37;;;;;;;22.22;27.53;95192.28;5109695;28;20958;-74
2022/10/14 11:33:46;;;;;;;0.20;0.20;;;;;;;22.06;27.98;95188.59;5109780;28;20777;-72
2022/10/14 11:36:38;;;;;;;0.20;0.20;;;;;;;22.98;27.19;95183.06;5093488;28;20525;-73
2022/10/14 11:39:23;;;;;;;0.10;0.10;;;;;;;22.75;27.30;95173.81;5097468;28;20182;-70
2022/10/14 11:42:12;;;;;;;0.10;0.10;;;;;;;22.86;26.90;95166.94;5093330;28;20287;-71
2022/10/14 11:44:42;;;;;;;0.10;0.10;;;;;;;23.23;27.38;95175.16;5093469;28;20473;-69
2022/10/14 11:47:21;;;;;;;0.10;0.10;;;;;;;23.72;26.63;95168.91;5093202;28;20440;-71
2022/10/14 11:49:58;;;;;;;0.10;0.10;;;;;;;23.72;26.17;95169.66;5101895;28;20813;-74
2022/10/14 11:52:30;;;;;;;0.20;0.20;;;;;;;22.74;26.58;95166.09;5093630;28;20444;-70
2022/10/14 11:55:27;;;;;;;0.93;0.50;;;;;;;23.05;25.89;95161.94;5106413;28;20206;-69
2022/10/14 11:58:01;;;;;;;0.10;0.10;;;;;;;23.83;25.94;95149.38;5092916;28;20797;-71
2022/10/14 12:03:35;;;;;;;0.10;0.10;;;;;;;23.62;24.25;95158.59;5114085;28;20202;-73
2022/10/14 12:06:11;;;;;;;0.10;0.10;;;;;;;24.48;24.92;95164.53;5113295;28;20505;-69
2022/10/14 12:08:54;;;;;;;0.20;0.20;;;;;;;23.53;25.77;95155.22;5113413;28;20205;-70
2022/10/14 12:11:33;;;;;;;0.07;0.07;;;;;;;23.39;25.70;95160.09;5113805;28;20204;-69